Time;durP1;ratioP1;P1;durP2;ratioP2;P2;SDS_P1;SDS_P2;PMS_P1;PMS_P2;Temp;Humidity;BMP_temperature;BMP_pressure;BME280_temperature;BME280_humidity;BME280_pressure;Samples;Min_cycle;Max_cycle;Signal;HPM_P1;HPM_P2
2023/08/13 00:01:18;;;;;;;8.45;6.07;;;14.10;99.90;;;;;;6101099;23;20027;-83
2023/08/13 00:03:45;;;;;;;8.50;6.45;;;14.00;99.90;;;;;;6103287;23;20029;-84
2023/08/13 00:06:13;;;;;;;8.82;6.50;;;14.00;99.90;;;;;;6069365;23;20447;-84
2023/08/13 00:08:41;;;;;;;10.73;6.88;;;14.00;99.90;;;;;;6094278;23;20030;-83
2023/08/13 00:11:09;;;;;;;7.68;6.70;;;14.00;99.90;;;;;;6096682;23;20073;-83
2023/08/13 00:13:36;;;;;;;8.13;6.30;;;13.90;99.90;;;;;;6069205;23;20033;-83
2023/08/13 00:16:04;;;;;;;13.27;6.72;;;13.90;99.90;;;;;;6099663;23;20020;-83
2023/08/13 00:18:32;;;;;;;8.65;6.57;;;13.80;99.90;;;;;;6103107;23;20030;-83
2023/08/13 00:20:59;;;;;;;8.27;6.50;;;14.00;99.90;;;;;;6070850;23;20737;-84
2023/08/13 00:23:28;;;;;;;8.55;6.50;;;13.90;99.90;;;;;;6094352;23;20467;-84
2023/08/13 00:25:55;;;;;;;11.10;7.38;;;13.80;99.90;;;;;;6101940;23;20034;-83
2023/08/13 00:28:23;;;;;;;9.43;6.07;;;13.90;99.90;;;;;;6097072;23;20010;-83
2023/08/13 00:30:49;;;;;;;7.40;6.00;;;13.80;99.90;;;;;;6096271;23;20018;-84
2023/08/13 00:33:16;;;;;;;10.68;6.43;;;13.70;99.90;;;;;;6082225;23;20089;-82
2023/08/13 00:35:44;;;;;;;8.18;6.57;;;13.60;99.90;;;;;;6112885;23;20026;-82
2023/08/13 00:38:11;;;;;;;11.18;6.60;;;13.70;99.90;;;;;;6072000;23;20030;-82
2023/08/13 00:40:40;;;;;;;8.07;6.60;;;13.70;99.90;;;;;;6101515;23;20027;-82
2023/08/13 00:43:07;;;;;;;9.57;6.45;;;13.60;99.90;;;;;;6076628;23;20102;-83
2023/08/13 00:45:36;;;;;;;8.13;6.55;;;13.50;99.90;;;;;;6081116;23;20022;-83
2023/08/13 00:48:07;;;;;;;10.75;6.57;;;13.50;99.90;;;;;;6119129;23;20014;-82
2023/08/13 00:50:34;;;;;;;10.07;6.60;;;13.70;99.90;;;;;;6083883;23;20026;-83
2023/08/13 00:53:02;;;;;;;7.32;6.32;;;13.60;99.90;;;;;;6114750;23;20026;-83
2023/08/13 00:55:30;;;;;;;8.93;7.25;;;13.60;99.90;;;;;;6090617;23;20022;-84
2023/08/13 00:57:59;;;;;;;8.90;6.72;;;13.50;99.90;;;;;;6086615;23;20058;-84
2023/08/13 01:00:27;;;;;;;8.88;6.70;;;13.50;99.90;;;;;;6107379;23;20475;-83
2023/08/13 01:02:56;;;;;;;9.25;7.05;;;13.50;99.90;;;;;;6117368;23;20019;-82
2023/08/13 01:05:28;;;;;;;8.82;7.07;;;13.50;99.90;;;;;;6080465;23;20022;-84
2023/08/13 01:08:05;;;;;;;8.38;6.65;;;13.50;99.90;;;;;;6075275;23;20537;-84
2023/08/13 01:10:35;;;;;;;8.18;6.20;;;13.40;99.90;;;;;;6102198;23;20522;-84
2023/08/13 01:13:14;;;;;;;7.57;6.70;;;13.40;99.90;;;;;;6104476;23;20529;-83
2023/08/13 01:15:46;;;;;;;10.68;6.68;;;13.30;99.90;;;;;;6071249;23;20030;-84
2023/08/13 01:18:15;;;;;;;8.10;6.53;;;13.20;99.90;;;;;;6105896;23;20069;-83
2023/08/13 01:20:46;;;;;;;9.25;6.25;;;13.20;99.90;;;;;;6073160;23;20021;-83
2023/08/13 01:23:15;;;;;;;8.73;6.70;;;13.20;99.90;;;;;;6104116;23;20026;-83
2023/08/13 01:25:48;;;;;;;13.07;7.93;;;13.20;99.90;;;;;;6106807;23;20039;-82
2023/08/13 01:28:27;;;;;;;18.90;13.15;;;13.20;99.90;;;;;;6091931;23;20029;-82
2023/08/13 01:30:57;;;;;;;21.67;15.32;;;13.20;99.90;;;;;;6091184;23;20022;-82
2023/08/13 01:33:30;;;;;;;24.27;17.35;;;13.10;99.90;;;;;;6079286;23;20022;-83
2023/08/13 01:35:58;;;;;;;8.80;7.40;;;13.20;99.90;;;;;;6107015;23;20014;-83
2023/08/13 01:38:29;;;;;;;7.95;6.32;;;13.10;99.90;;;;;;6096117;23;20026;-82
2023/08/13 01:40:58;;;;;;;9.60;6.45;;;13.10;99.90;;;;;;6106393;23;20041;-83
2023/08/13 01:43:25;;;;;;;8.85;6.30;;;13.00;99.90;;;;;;6108091;23;20089;-82
2023/08/13 01:45:53;;;;;;;10.05;7.00;;;13.00;99.90;;;;;;6102215;23;20386;-84
2023/08/13 01:48:21;;;;;;;8.55;6.97;;;13.00;99.90;;;;;;6068951;23;20050;-82
2023/08/13 01:50:48;;;;;;;7.72;6.93;;;13.10;99.90;;;;;;6069092;23;20015;-84
2023/08/13 01:53:16;;;;;;;10.13;7.43;;;13.00;99.90;;;;;;6095163;23;20440;-83
2023/08/13 01:55:45;;;;;;;12.27;7.07;;;12.90;99.90;;;;;;6096610;23;20102;-84
2023/08/13 01:58:12;;;;;;;10.52;7.20;;;12.90;99.90;;;;;;6071361;23;20026;-83
2023/08/13 02:00:40;;;;;;;9.43;7.50;;;12.90;99.90;;;;;;6103271;23;20034;-84
2023/08/13 02:03:08;;;;;;;15.60;7.55;;;12.90;99.90;;;;;;6096204;23;20058;-83
2023/08/13 02:05:35;;;;;;;7.80;7.00;;;12.80;99.90;;;;;;6082958;23;20006;-83
2023/08/13 02:08:02;;;;;;;10.10;7.30;;;12.80;99.90;;;;;;6089472;23;20033;-82
2023/08/13 02:10:31;;;;;;;9.95;7.63;;;12.80;99.90;;;;;;6097093;23;20347;-84
2023/08/13 02:13:00;;;;;;;9.43;7.55;;;12.80;99.90;;;;;;6069689;23;20029;-81
2023/08/13 02:15:28;;;;;;;9.57;7.10;;;12.70;99.90;;;;;;6093439;23;20023;-83
2023/08/13 02:17:59;;;;;;;10.07;7.25;;;12.80;99.90;;;;;;6071432;23;20018;-84
2023/08/13 02:20:26;;;;;;;10.20;7.57;;;12.70;99.90;;;;;;6095842;23;20196;-83
2023/08/13 02:22:54;;;;;;;9.43;7.63;;;12.70;99.90;;;;;;6069399;23;20077;-83
2023/08/13 02:25:22;;;;;;;7.70;6.65;;;12.70;99.90;;;;;;6097725;23;20037;-85
2023/08/13 02:27:49;;;;;;;9.25;6.70;;;12.70;99.90;;;;;;6067888;23;20038;-83
2023/08/13 02:30:19;;;;;;;9.40;7.20;;;12.70;99.90;;;;;;6081426;23;20002;-81
2023/08/13 02:32:47;;;;;;;9.32;7.47;;;12.70;99.90;;;;;;6096653;23;20078;-84
2023/08/13 02:35:15;;;;;;;8.23;7.22;;;12.70;99.90;;;;;;6092638;23;20027;-82
2023/08/13 02:37:43;;;;;;;8.73;7.10;;;12.70;99.90;;;;;;6117287;23;20030;-83
2023/08/13 02:40:11;;;;;;;8.40;6.95;;;12.50;99.90;;;;;;6088452;23;20060;-82
2023/08/13 02:42:38;;;;;;;7.88;6.97;;;12.40;99.90;;;;;;6071196;23;20022;-83
2023/08/13 02:45:06;;;;;;;11.55;8.07;;;12.30;99.90;;;;;;6104848;23;20018;-82
2023/08/13 02:47:35;;;;;;;9.52;7.50;;;12.30;99.90;;;;;;6105706;23;20048;-83
2023/08/13 02:50:03;;;;;;;12.65;7.30;;;12.20;99.90;;;;;;6095724;23;20032;-82
2023/08/13 02:52:32;;;;;;;9.32;7.00;;;12.20;99.90;;;;;;6068123;23;20113;-82
2023/08/13 02:55:00;;;;;;;8.15;7.22;;;12.30;99.90;;;;;;6067925;23;20107;-82
2023/08/13 02:57:27;;;;;;;8.77;6.60;;;12.20;99.90;;;;;;6100543;23;20101;-83
2023/08/13 02:59:55;;;;;;;7.47;6.57;;;12.30;99.90;;;;;;6068310;23;20481;-83
2023/08/13 03:02:22;;;;;;;9.75;6.95;;;12.40;99.90;;;;;;6067022;23;20101;-82
2023/08/13 03:04:52;;;;;;;9.82;7.18;;;12.30;99.90;;;;;;6094059;23;20432;-84
2023/08/13 03:07:19;;;;;;;9.90;6.97;;;12.30;99.90;;;;;;6106484;23;20038;-83
2023/08/13 03:09:48;;;;;;;8.73;7.10;;;12.30;99.90;;;;;;6107924;23;20018;-81
2023/08/13 03:12:15;;;;;;;9.02;7.00;;;12.30;99.90;;;;;;6087719;23;20073;-85
2023/08/13 03:14:43;;;;;;;10.90;7.10;;;12.30;99.90;;;;;;6069443;23;20112;-84
2023/08/13 03:17:10;;;;;;;7.65;6.43;;;12.30;99.90;;;;;;6098561;23;20026;-83
2023/08/13 03:19:39;;;;;;;9.68;8.50;;;12.40;99.90;;;;;;6068438;23;20030;-81
2023/08/13 03:22:08;;;;;;;10.45;7.47;;;12.40;99.90;;;;;;6067371;23;20479;-83
2023/08/13 03:24:36;;;;;;;8.35;7.03;;;12.30;99.90;;;;;;6067438;23;20033;-83
2023/08/13 03:27:05;;;;;;;12.05;7.97;;;12.30;99.90;;;;;;6066720;23;20019;-86
2023/08/13 03:29:34;;;;;;;8.77;7.85;;;12.20;99.90;;;;;;6067815;23;20046;-84
2023/08/13 03:32:02;;;;;;;7.53;6.72;;;12.20;99.90;;;;;;6068403;23;20359;-82
2023/08/13 03:34:31;;;;;;;8.40;7.50;;;12.20;99.90;;;;;;6067413;23;20038;-83
2023/08/13 03:36:58;;;;;;;8.50;6.85;;;12.20;99.90;;;;;;6067084;23;20050;-83
2023/08/13 03:39:27;;;;;;;10.77;7.30;;;12.20;99.90;;;;;;6085550;23;20113;-82
2023/08/13 03:41:55;;;;;;;9.23;7.10;;;12.20;99.90;;;;;;6068515;23;20114;-85
2023/08/13 03:44:22;;;;;;;14.23;7.10;;;12.10;99.90;;;;;;6093024;23;20022;-84
2023/08/13 03:46:50;;;;;;;7.65;6.72;;;12.30;99.90;;;;;;6093406;23;20028;-84
2023/08/13 03:49:17;;;;;;;8.95;7.25;;;12.20;99.90;;;;;;6080627;23;20113;-83
2023/08/13 03:51:46;;;;;;;8.18;6.65;;;12.20;99.90;;;;;;6068382;23;20037;-83
2023/08/13 03:54:15;;;;;;;12.52;7.60;;;12.30;99.90;;;;;;6083343;23;20039;-82
2023/08/13 03:56:44;;;;;;;10.77;8.48;;;12.20;99.90;;;;;;6095492;23;20612;-82
2023/08/13 03:59:12;;;;;;;8.93;7.65;;;12.10;99.90;;;;;;6086731;23;20027;-82
2023/08/13 04:01:40;;;;;;;10.38;7.60;;;12.20;99.90;;;;;;6076485;23;20057;-83
2023/08/13 04:04:09;;;;;;;8.13;6.95;;;12.30;99.90;;;;;;6071815;23;20105;-82
2023/08/13 04:06:36;;;;;;;9.90;8.15;;;12.30;99.90;;;;;;6103426;23;20073;-84
2023/08/13 04:09:05;;;;;;;8.85;7.78;;;12.20;99.90;;;;;;6069406;23;20404;-82
2023/08/13 04:11:37;;;;;;;9.20;6.95;;;12.30;99.90;;;;;;6105027;23;20069;-83
2023/08/13 04:14:06;;;;;;;9.60;7.63;;;12.40;99.90;;;;;;6099718;23;20065;-82
2023/08/13 04:16:35;;;;;;;9.82;6.78;;;12.60;99.90;;;;;;6069523;23;20487;-86
2023/08/13 04:19:04;;;;;;;7.93;6.20;;;12.90;99.90;;;;;;6067777;23;20022;-82
2023/08/13 04:21:33;;;;;;;8.15;6.47;;;13.30;99.90;;;;;;6100691;23;20515;-83
2023/08/13 04:24:00;;;;;;;8.82;5.82;;;13.80;99.90;;;;;;6067119;23;20022;-83
2023/08/13 04:26:28;;;;;;;9.60;5.35;;;14.40;99.90;;;;;;6066782;23;20027;-84
2023/08/13 04:28:58;;;;;;;14.38;6.10;;;14.90;99.90;;;;;;6066335;23;20022;-82
2023/08/13 04:31:28;;;;;;;19.00;6.10;;;15.20;99.90;;;;;;6089919;23;20026;-83
2023/08/13 04:33:56;;;;;;;9.85;5.30;;;15.50;99.90;;;;;;6092595;23;20074;-84
2023/08/13 04:36:23;;;;;;;7.53;5.25;;;15.60;99.90;;;;;;6067235;23;20022;-81
2023/08/13 04:38:51;;;;;;;12.43;5.57;;;15.80;99.90;;;;;;6069556;23;20105;-83
2023/08/13 04:41:19;;;;;;;7.97;5.30;;;15.80;99.90;;;;;;6089334;23;20037;-81
2023/08/13 04:43:49;;;;;;;6.80;5.30;;;15.80;99.90;;;;;;6092300;23;20014;-84
2023/08/13 04:46:17;;;;;;;8.95;4.93;;;15.60;99.90;;;;;;6107360;23;20030;-82
2023/08/13 04:48:55;;;;;;;7.53;5.10;;;15.50;99.90;;;;;;6068833;23;20030;-82
2023/08/13 04:51:25;;;;;;;10.07;5.60;;;15.50;99.90;;;;;;6102592;23;20020;-83
2023/08/13 04:53:53;;;;;;;12.35;5.93;;;15.60;99.90;;;;;;6093765;23;20487;-83
2023/08/13 04:56:23;;;;;;;15.60;5.95;;;15.50;99.90;;;;;;6092302;23;20093;-86
2023/08/13 04:58:50;;;;;;;9.05;5.43;;;15.40;99.90;;;;;;6096688;23;20096;-83
2023/08/13 05:01:18;;;;;;;8.32;6.20;;;15.30;99.90;;;;;;6068722;23;20097;-83
2023/08/13 05:03:51;;;;;;;9.98;6.25;;;15.30;99.90;;;;;;6070319;23;20026;-83
2023/08/13 05:06:22;;;;;;;10.27;5.80;;;15.20;99.90;;;;;;6069701;23;20018;-82
2023/08/13 05:08:50;;;;;;;10.82;6.10;;;15.40;99.90;;;;;;6071476;23;20015;-83
2023/08/13 05:11:19;;;;;;;17.33;6.90;;;15.70;99.90;;;;;;6097105;23;20028;-83
2023/08/13 05:13:47;;;;;;;9.60;6.05;;;15.80;99.90;;;;;;6071159;23;20546;-82
2023/08/13 05:16:15;;;;;;;6.60;5.30;;;16.00;99.90;;;;;;6093519;23;20022;-83
2023/08/13 05:18:44;;;;;;;7.30;5.47;;;16.30;99.90;;;;;;6068659;23;20110;-83
2023/08/13 05:21:11;;;;;;;9.00;5.85;;;16.50;99.90;;;;;;6069164;23;20449;-82
2023/08/13 05:23:40;;;;;;;8.45;5.88;;;16.70;99.90;;;;;;6070162;23;20018;-82
2023/08/13 05:26:09;;;;;;;10.25;5.85;;;16.70;99.90;;;;;;6091924;23;20030;-83
2023/08/13 05:28:37;;;;;;;14.57;9.40;;;16.80;99.90;;;;;;6097736;23;20093;-82
2023/08/13 05:31:06;;;;;;;12.25;5.68;;;16.90;99.90;;;;;;6071516;23;20033;-83
2023/08/13 05:33:35;;;;;;;6.72;4.97;;;17.40;99.90;;;;;;6097194;23;20078;-84
2023/08/13 05:36:03;;;;;;;6.70;5.47;;;17.80;99.90;;;;;;6113352;23;20006;-82
2023/08/13 05:38:31;;;;;;;6.72;5.28;;;17.90;99.90;;;;;;6131431;23;20018;-83
2023/08/13 05:41:01;;;;;;;11.93;5.10;;;17.90;99.90;;;;;;6095362;23;20010;-83
2023/08/13 05:43:30;;;;;;;10.05;5.30;;;18.00;99.90;;;;;;6122905;23;20070;-82
2023/08/13 05:45:58;;;;;;;8.90;5.32;;;18.10;99.90;;;;;;6068418;23;20026;-84
2023/08/13 05:48:26;;;;;;;7.88;5.20;;;18.20;99.90;;;;;;6094784;23;20058;-83
2023/08/13 05:50:53;;;;;;;8.48;5.20;;;18.30;99.90;;;;;;6094725;23;20022;-84
2023/08/13 05:53:21;;;;;;;12.18;6.43;;;18.50;99.90;;;;;;6083816;23;20471;-84
2023/08/13 05:55:48;;;;;;;7.45;5.90;;;18.80;99.90;;;;;;6107431;23;20026;-83
2023/08/13 05:58:18;;;;;;;29.42;8.82;;;19.10;99.90;;;;;;6099016;23;20026;-82
2023/08/13 06:00:45;;;;;;;11.75;5.70;;;19.30;99.90;;;;;;6101116;23;20081;-84
2023/08/13 06:03:14;;;;;;;10.90;6.60;;;19.50;99.90;;;;;;6102733;23;20097;-81
2023/08/13 06:05:41;;;;;;;6.40;5.00;;;19.90;99.90;;;;;;6068021;23;20458;-82
2023/08/13 06:08:10;;;;;;;6.55;4.82;;;19.80;99.90;;;;;;6095673;23;20094;-83
2023/08/13 06:10:37;;;;;;;8.02;5.10;;;19.70;99.90;;;;;;6072885;23;20077;-83
2023/08/13 06:13:05;;;;;;;7.97;6.30;;;19.60;99.90;;;;;;6100346;23;20030;-81
2023/08/13 06:15:34;;;;;;;6.70;5.07;;;19.90;99.90;;;;;;6101554;23;20022;-83
2023/08/13 06:18:02;;;;;;;7.78;5.70;;;20.00;99.90;;;;;;6106702;23;20014;-83
2023/08/13 06:20:30;;;;;;;6.05;5.45;;;20.10;99.90;;;;;;6108665;23;20022;-82
2023/08/13 06:22:58;;;;;;;11.07;4.95;;;20.30;99.90;;;;;;6096679;23;20458;-81
2023/08/13 06:25:25;;;;;;;7.85;5.07;;;20.20;99.90;;;;;;6097682;23;20032;-82
2023/08/13 06:27:52;;;;;;;12.75;4.97;;;20.50;99.90;;;;;;6067302;23;20121;-81
2023/08/13 06:30:20;;;;;;;23.80;8.02;;;20.70;99.90;;;;;;6101705;23;20097;-83
2023/08/13 06:32:49;;;;;;;6.72;5.60;;;20.90;99.90;;;;;;6104947;23;20010;-81
2023/08/13 06:35:16;;;;;;;10.10;8.00;;;21.20;99.90;;;;;;6096316;23;20387;-78
2023/08/13 06:37:45;;;;;;;12.40;7.30;;;21.50;99.90;;;;;;6104406;23;20039;-82
2023/08/13 06:40:14;;;;;;;7.90;5.53;;;21.60;99.90;;;;;;6109671;23;20028;-82
2023/08/13 06:42:42;;;;;;;9.00;5.78;;;21.70;99.90;;;;;;6093423;23;20018;-81
2023/08/13 06:45:10;;;;;;;8.10;5.35;;;21.70;99.90;;;;;;6102334;23;20023;-81
2023/08/13 06:47:37;;;;;;;11.63;5.72;;;21.90;99.90;;;;;;6103196;23;20049;-79
2023/08/13 06:50:07;;;;;;;10.30;5.32;;;22.00;99.90;;;;;;6094536;23;20459;-82
2023/08/13 06:52:35;;;;;;;10.20;5.63;;;22.20;99.90;;;;;;6096679;23;20031;-80
2023/08/13 06:55:03;;;;;;;10.00;5.82;;;22.40;99.90;;;;;;6067139;23;20030;-82
2023/08/13 06:57:30;;;;;;;10.52;5.57;;;22.50;99.90;;;;;;6099867;23;20070;-80
2023/08/13 06:59:58;;;;;;;9.65;6.43;;;22.80;99.90;;;;;;6103006;23;20019;-82
2023/08/13 07:02:25;;;;;;;10.25;8.02;;;22.90;99.90;;;;;;6092778;23;20026;-81
2023/08/13 07:04:53;;;;;;;9.45;5.28;;;23.00;99.90;;;;;;6066619;23;20030;-82
2023/08/13 07:07:22;;;;;;;7.97;5.63;;;22.80;99.90;;;;;;6097090;23;20026;-82
2023/08/13 07:09:49;;;;;;;8.00;6.15;;;22.60;99.90;;;;;;6091699;23;20411;-81
2023/08/13 07:12:17;;;;;;;12.10;6.97;;;22.50;99.90;;;;;;6101660;23;20066;-82
2023/08/13 07:14:44;;;;;;;7.78;5.70;;;22.40;99.90;;;;;;6103227;23;20018;-83
2023/08/13 07:17:13;;;;;;;8.85;4.80;;;22.40;99.90;;;;;;6098819;23;20030;-81
2023/08/13 07:19:40;;;;;;;8.13;5.47;;;22.40;99.90;;;;;;6105024;23;20022;-81
2023/08/13 07:22:08;;;;;;;7.50;5.70;;;22.60;99.90;;;;;;6111114;23;20041;-82
2023/08/13 07:24:37;;;;;;;8.40;5.78;;;22.70;99.90;;;;;;6079028;23;20019;-83
2023/08/13 07:27:04;;;;;;;8.55;5.43;;;22.80;99.90;;;;;;6123270;23;20025;-83
2023/08/13 07:29:32;;;;;;;8.13;5.78;;;22.90;99.90;;;;;;6115440;23;20022;-82
2023/08/13 07:32:00;;;;;;;12.68;5.90;;;23.00;99.90;;;;;;6099914;23;20101;-82
2023/08/13 07:34:29;;;;;;;7.75;5.68;;;23.20;99.90;;;;;;6095638;23;20038;-82
2023/08/13 07:36:56;;;;;;;9.18;6.25;;;23.30;99.90;;;;;;6100068;23;20068;-81
2023/08/13 07:39:24;;;;;;;9.32;5.93;;;23.40;99.90;;;;;;6069466;23;20070;-82
2023/08/13 07:41:53;;;;;;;9.52;6.53;;;23.50;99.90;;;;;;6104323;23;20014;-82
2023/08/13 07:44:21;;;;;;;9.70;6.22;;;23.60;99.90;;;;;;6094403;23;20027;-82
2023/08/13 07:46:50;;;;;;;9.38;6.82;;;23.60;99.90;;;;;;6067857;23;20033;-82
2023/08/13 07:49:18;;;;;;;9.30;6.53;;;23.70;99.90;;;;;;6091728;23;20102;-81
2023/08/13 07:51:45;;;;;;;8.95;6.13;;;23.60;99.90;;;;;;6099940;23;20046;-82
2023/08/13 07:54:13;;;;;;;12.15;6.10;;;23.80;99.90;;;;;;6102404;23;20062;-82
2023/08/13 07:56:40;;;;;;;7.85;7.00;;;23.90;99.90;;;;;;6105244;23;20454;-83
2023/08/13 07:59:10;;;;;;;8.80;6.60;;;24.10;99.90;;;;;;6096041;23;20045;-80
2023/08/13 08:01:38;;;;;;;8.30;6.50;;;24.20;99.90;;;;;;6083000;23;20050;-82
2023/08/13 08:04:05;;;;;;;7.32;5.53;;;24.40;99.90;;;;;;6100368;23;20037;-81
2023/08/13 08:06:33;;;;;;;6.53;5.03;;;24.60;99.90;;;;;;6102313;23;20053;-80
2023/08/13 08:09:00;;;;;;;7.85;4.93;;;24.70;99.90;;;;;;6103613;23;20028;-81
2023/08/13 08:11:28;;;;;;;9.63;5.10;;;24.60;99.90;;;;;;6092439;23;20090;-82
2023/08/13 08:13:55;;;;;;;7.70;4.90;;;24.70;99.90;;;;;;6094666;23;20035;-83
2023/08/13 08:16:24;;;;;;;9.45;5.13;;;25.00;99.90;;;;;;6097566;23;20085;-82
2023/08/13 08:18:52;;;;;;;6.32;4.72;;;25.10;99.90;;;;;;6101061;23;20023;-83
2023/08/13 08:21:19;;;;;;;6.55;4.82;;;25.10;99.90;;;;;;6103135;23;20032;-83
2023/08/13 08:23:47;;;;;;;7.43;4.70;;;25.20;99.90;;;;;;6069191;23;20073;-81
2023/08/13 08:26:14;;;;;;;8.50;6.35;;;25.30;99.90;;;;;;6067856;23;20061;-82
2023/08/13 08:28:42;;;;;;;8.65;5.32;;;25.40;99.90;;;;;;6097764;23;20022;-81
2023/08/13 08:31:09;;;;;;;5.80;4.70;;;25.60;99.90;;;;;;6099780;23;20059;-81
2023/08/13 08:33:38;;;;;;;9.68;5.43;;;25.80;99.90;;;;;;6101433;23;20078;-80
2023/08/13 08:36:06;;;;;;;8.55;7.30;;;25.80;99.90;;;;;;6103809;23;20037;-82
2023/08/13 08:38:33;;;;;;;10.60;6.82;;;26.00;99.90;;;;;;6109862;23;20019;-81
2023/08/13 08:41:01;;;;;;;9.35;6.07;;;26.00;99.90;;;;;;6108025;23;20022;-81
2023/08/13 08:43:31;;;;;;;7.95;5.07;;;26.10;99.90;;;;;;6109559;23;20030;-79
2023/08/13 08:45:59;;;;;;;8.70;4.38;;;26.30;99.90;;;;;;6100487;23;20033;-82
2023/08/13 08:48:28;;;;;;;5.90;4.40;;;26.30;99.90;;;;;;6103254;23;20090;-81
2023/08/13 08:50:57;;;;;;;6.82;4.57;;;26.40;99.90;;;;;;6105856;23;20018;-83
2023/08/13 08:53:26;;;;;;;6.10;4.32;;;26.30;99.90;;;;;;6095302;23;20117;-82
2023/08/13 08:55:54;;;;;;;7.45;4.30;;;26.40;99.90;;;;;;6093944;23;20034;-81
2023/08/13 08:58:21;;;;;;;8.65;4.75;;;26.50;99.90;;;;;;6098015;23;20086;-82
2023/08/13 09:00:48;;;;;;;6.85;4.43;;;26.70;99.90;;;;;;6100514;23;20086;-84
2023/08/13 09:03:17;;;;;;;9.80;8.38;;;26.80;99.90;;;;;;6102442;23;20023;-83
2023/08/13 09:05:44;;;;;;;5.90;4.43;;;26.70;99.90;;;;;;6104312;23;20015;-80
2023/08/13 09:08:13;;;;;;;7.40;4.38;;;26.70;99.90;;;;;;6095537;23;20026;-81
2023/08/13 09:10:42;;;;;;;9.00;5.90;;;26.80;99.90;;;;;;6098066;23;20019;-83
2023/08/13 09:13:10;;;;;;;5.95;4.57;;;26.90;99.90;;;;;;6101873;23;20156;-80
2023/08/13 09:15:41;;;;;;;9.00;6.18;;;26.90;99.90;;;;;;6103814;23;20106;-81
2023/08/13 09:18:10;;;;;;;6.57;4.15;;;27.10;99.90;;;;;;6104352;23;20057;-82
2023/08/13 09:20:44;;;;;;;6.38;4.38;;;27.10;99.90;;;;;;6106312;23;20018;-81
2023/08/13 09:23:20;;;;;;;7.47;5.68;;;27.20;99.90;;;;;;6094800;23;20451;-81
2023/08/13 09:25:51;;;;;;;8.30;5.47;;;27.30;99.90;;;;;;6095893;23;20071;-83
2023/08/13 09:28:18;;;;;;;10.55;7.88;;;27.20;99.90;;;;;;6071803;23;20026;-81
2023/08/13 09:30:46;;;;;;;5.50;4.53;;;27.20;99.90;;;;;;6111591;23;20037;-81
2023/08/13 09:33:16;;;;;;;11.43;5.70;;;27.30;99.90;;;;;;6115159;23;20019;-81
2023/08/13 09:35:44;;;;;;;6.00;4.20;;;27.50;99.90;;;;;;6103552;23;20085;-84
2023/08/13 09:38:13;;;;;;;5.20;4.00;;;27.70;99.90;;;;;;6069461;23;20026;-84
2023/08/13 09:40:40;;;;;;;4.93;3.70;;;27.70;99.90;;;;;;6096573;23;20022;-83
2023/08/13 09:43:12;;;;;;;7.47;4.75;;;27.80;99.90;;;;;;6099812;23;20027;-83
2023/08/13 09:45:40;;;;;;;13.88;10.25;;;27.70;99.90;;;;;;6093007;23;20023;-83
2023/08/13 09:48:09;;;;;;;4.60;3.60;;;27.60;99.90;;;;;;6104767;23;20042;-82
2023/08/13 09:50:41;;;;;;;5.15;3.85;;;27.30;99.90;;;;;;6108621;23;20019;-82
2023/08/13 09:53:14;;;;;;;5.80;3.65;;;27.30;99.90;;;;;;6095377;23;20026;-82
2023/08/13 09:55:49;;;;;;;6.82;4.28;;;27.30;99.90;;;;;;6068152;23;20526;-82
2023/08/13 09:58:19;;;;;;;3.85;2.60;;;27.40;99.90;;;;;;6101136;23;20026;-82
2023/08/13 10:00:47;;;;;;;4.95;3.03;;;27.20;99.90;;;;;;6069608;23;20022;-82
2023/08/13 10:03:17;;;;;;;5.47;3.67;;;27.40;99.90;;;;;;6070133;23;20093;-82
2023/08/13 10:05:45;;;;;;;4.70;2.78;;;27.50;99.90;;;;;;6105498;23;20046;-80
2023/08/13 10:08:13;;;;;;;3.97;3.05;;;27.40;99.90;;;;;;6095950;23;20090;-81
2023/08/13 10:10:44;;;;;;;3.55;2.65;;;27.40;99.90;;;;;;6068907;23;20033;-82
2023/08/13 10:13:11;;;;;;;4.18;2.40;;;27.30;99.90;;;;;;6099332;23;20522;-84
2023/08/13 10:15:40;;;;;;;4.50;2.80;;;27.30;99.90;;;;;;6100635;23;20030;-82
2023/08/13 10:18:07;;;;;;;3.75;2.90;;;27.40;99.90;;;;;;6103279;23;20637;-81
2023/08/13 10:20:35;;;;;;;5.15;2.97;;;27.50;99.90;;;;;;6104216;23;20021;-82
2023/08/13 10:23:07;;;;;;;5.25;2.70;;;27.50;99.90;;;;;;6095211;23;20097;-81
2023/08/13 10:25:35;;;;;;;4.68;3.17;;;27.50;99.90;;;;;;6098341;23;20030;-83
2023/08/13 10:28:21;;;;;;;5.70;3.65;;;27.40;99.90;;;;;;6101220;23;20093;-83
2023/08/13 10:30:48;;;;;;;5.70;2.92;;;27.60;99.90;;;;;;6103216;23;20030;-83
2023/08/13 10:33:16;;;;;;;8.60;2.97;;;27.70;99.90;;;;;;6109317;23;20074;-82
2023/08/13 10:35:43;;;;;;;8.90;4.85;;;27.60;99.90;;;;;;6114199;23;20014;-83
2023/08/13 10:38:11;;;;;;;7.20;3.42;;;27.50;99.90;;;;;;6099349;23;20022;-82
2023/08/13 10:40:57;;;;;;;6.25;3.45;;;27.50;99.90;;;;;;6093091;23;20526;-85
2023/08/13 10:43:26;;;;;;;5.28;3.70;;;27.50;99.90;;;;;;6099584;23;20024;-81
2023/08/13 10:45:53;;;;;;;7.57;3.53;;;27.50;99.90;;;;;;6103090;23;20085;-83
2023/08/13 10:48:27;;;;;;;5.60;3.65;;;27.60;99.90;;;;;;6104021;23;20034;-82
2023/08/13 10:50:57;;;;;;;9.77;3.70;;;27.60;99.90;;;;;;6112466;23;20019;-82
2023/08/13 10:53:27;;;;;;;5.07;3.78;;;27.60;99.90;;;;;;6116463;23;20030;-82
2023/08/13 10:55:56;;;;;;;4.50;3.47;;;27.50;99.90;;;;;;6111481;23;20057;-81
2023/08/13 10:58:27;;;;;;;6.22;3.15;;;27.60;99.90;;;;;;6100764;23;20074;-81
2023/08/13 11:00:59;;;;;;;5.15;2.80;;;27.60;99.90;;;;;;6100722;23;20018;-81
2023/08/13 11:03:30;;;;;;;10.10;3.65;;;27.30;99.90;;;;;;6103479;23;20026;-83
2023/08/13 11:05:58;;;;;;;6.10;3.20;;;27.50;99.90;;;;;;6104952;23;20455;-82
2023/08/13 11:08:26;;;;;;;4.32;2.83;;;27.50;99.90;;;;;;6093666;23;20022;-81
2023/08/13 11:10:54;;;;;;;6.10;3.50;;;27.70;99.90;;;;;;6067703;23;20018;-82
2023/08/13 11:13:22;;;;;;;4.93;3.13;;;27.80;99.90;;;;;;6067011;23;20026;-82
2023/08/13 11:15:52;;;;;;;5.43;2.95;;;27.80;99.90;;;;;;6098797;23;20085;-83
2023/08/13 11:18:20;;;;;;;4.90;3.17;;;27.70;99.90;;;;;;6101549;23;20014;-83
2023/08/13 11:20:49;;;;;;;4.95;2.95;;;27.80;99.90;;;;;;6103393;23;20101;-83
2023/08/13 11:23:20;;;;;;;5.57;3.35;;;27.80;99.90;;;;;;6104380;23;20034;-82
2023/08/13 11:25:48;;;;;;;5.68;3.67;;;27.80;99.90;;;;;;6076274;23;20027;-83
2023/08/13 11:28:20;;;;;;;5.43;3.10;;;27.90;99.90;;;;;;6075866;23;20022;-82
2023/08/13 11:30:47;;;;;;;5.75;3.47;;;27.90;99.90;;;;;;6107159;23;20026;-85
2023/08/13 11:33:16;;;;;;;4.28;3.20;;;27.80;99.90;;;;;;6104118;23;20014;-83
2023/08/13 11:35:44;;;;;;;5.82;3.83;;;27.80;99.90;;;;;;6103436;23;20042;-84
2023/08/13 11:38:14;;;;;;;4.47;3.30;;;27.60;99.90;;;;;;6094444;23;20026;-83
2023/08/13 11:40:42;;;;;;;6.63;3.42;;;27.70;99.90;;;;;;6068950;23;20022;-82
2023/08/13 11:43:11;;;;;;;3.63;2.97;;;27.80;99.90;;;;;;6099305;23;20022;-83
2023/08/13 11:45:40;;;;;;;4.43;2.92;;;27.80;99.90;;;;;;6100482;23;20518;-85
2023/08/13 11:48:12;;;;;;;4.28;2.97;;;27.80;99.90;;;;;;6076518;23;20058;-82
2023/08/13 11:50:41;;;;;;;5.18;3.20;;;27.90;99.90;;;;;;6104666;23;20560;-82
2023/08/13 11:53:10;;;;;;;7.35;3.88;;;27.90;99.90;;;;;;6095238;23;20113;-82
2023/08/13 11:55:40;;;;;;;3.63;2.92;;;27.80;99.90;;;;;;6097553;23;20483;-84
2023/08/13 11:58:08;;;;;;;4.63;3.20;;;27.80;99.90;;;;;;6099646;23;20085;-83
2023/08/13 12:00:35;;;;;;;4.78;3.58;;;27.70;99.90;;;;;;6101841;23;20023;-82
2023/08/13 12:03:03;;;;;;;6.50;3.03;;;27.50;99.90;;;;;;6092812;23;20053;-83
2023/08/13 12:05:32;;;;;;;5.47;3.15;;;27.50;99.90;;;;;;6093620;23;20014;-82
2023/08/13 12:08:02;;;;;;;5.15;3.03;;;27.40;99.90;;;;;;6096559;23;20038;-83
2023/08/13 12:10:29;;;;;;;3.83;3.05;;;27.40;99.90;;;;;;6100638;23;20511;-83
2023/08/13 12:12:57;;;;;;;6.85;3.88;;;27.40;99.90;;;;;;6100238;23;20054;-82
2023/08/13 12:15:25;;;;;;;3.60;2.83;;;27.40;99.90;;;;;;6102096;23;20378;-83
2023/08/13 12:17:53;;;;;;;5.63;3.35;;;27.50;99.90;;;;;;6071381;23;20026;-82
2023/08/13 12:20:22;;;;;;;12.00;8.35;;;27.20;99.90;;;;;;6096653;23;20027;-81
2023/08/13 12:22:49;;;;;;;5.13;3.55;;;27.40;99.90;;;;;;6096475;23;20038;-84
2023/08/13 12:25:19;;;;;;;4.68;3.28;;;27.60;99.90;;;;;;6098707;23;20030;-82
2023/08/13 12:27:47;;;;;;;6.60;3.65;;;27.40;99.90;;;;;;6100851;23;20093;-84
2023/08/13 12:30:15;;;;;;;5.13;4.13;;;27.60;99.90;;;;;;6103281;23;20038;-82
2023/08/13 12:32:42;;;;;;;6.80;3.50;;;27.70;99.90;;;;;;6104533;23;20034;-84
2023/08/13 12:35:10;;;;;;;5.22;3.28;;;27.70;99.90;;;;;;6106382;23;20026;-81
2023/08/13 12:37:37;;;;;;;5.05;3.30;;;27.70;99.90;;;;;;6111851;23;20069;-79
2023/08/13 12:40:09;;;;;;;5.85;3.55;;;27.60;99.90;;;;;;6113264;23;20035;-82
2023/08/13 12:42:38;;;;;;;5.82;3.70;;;27.60;99.90;;;;;;6071968;23;20044;-82
2023/08/13 12:45:07;;;;;;;6.00;4.25;;;27.70;99.90;;;;;;6123954;23;20078;-82
2023/08/13 12:47:34;;;;;;;7.70;5.25;;;27.70;99.90;;;;;;6129178;23;20014;-83
2023/08/13 12:50:02;;;;;;;6.60;3.90;;;27.90;99.90;;;;;;6103012;23;20023;-83
2023/08/13 12:52:29;;;;;;;5.55;3.10;;;27.80;99.90;;;;;;6073804;23;20078;-80